Airfield :







YOU CAN JOIN US ON...

 
LOGIN :

Register | Disclaimer

   EN    FR    IT 

 









Legend :    VFR   Marginal VFR   IFR   Intensive IFR   Very Intensive IFR
Visi :
Ceiling :
>= 8 km
>= 3000ft
5 to 8 km
1000 to 3000 ft
1500m to 5 km
500 to 1000 ft
800 to 1500m
200 to 500 ft
< 800m
< 200 ft
Symbols :   Thunderstorms  Fog  Heavy snow  Heavy precipitations  Wind > 20 kt







- Airport Elevation : 522 ft
- IATA code : YBG


CYBG - CFB Bagotville

CURRENT METAR :
  • 222000Z 25012KT 20SM SCT040 BKN060 OVC090 24/18 A2971 RMK SC3SC3AC2 SLP063

EXPIRED METARs :
  • 221900Z 24004KT 15SM FEW028 SCT055 OVC090 23/18 A2973 RMK SC1SC2AC5 SLP071
  • 221800Z 25006KT 8SM -SHRA FEW028 SCT050 OVC080 21/19 A2976 RMK SC2SC2AC4 SLP080

TAF TAF CYBG
Valid from the 22 at 18:00 until the 23 at 18:00 UTC


221730Z 2218/2318 09005KT P6SM SCT030 BKN070
TEMPO 2218/2304 3SM -SHRA BR BKN030 OVC070
BECMG 2218/2220 26015G25KT
FM230400 26008KT P6SM -SHRA SCT015 OVC030
TEMPO 2304/2312 3SM SHRA BR OVC015
PROB30 2304/2312 VRB15G30KT 2SM TSRA BKN010 OVC030CB
FM231200 30012KT P6SM SCT020 OVC030
TEMPO 2312/2317 5SM -SHRA BR OVC020
FM231700 30012KT P6SM SCT030 RMK NXT FCST BY 230000Z
No reported NOTAMs for that airfield.



MET'MAP, your aeronautical weather chart ! - Copyright ORBIFLY December 2007 - Disclaimer

ORBIFLY MET'MAP TEAM :

Programming & Development : Alexandra Zaïnal
Concept & Development : Baudouin d'Aumeries
Co-Development & Prog : Marc-Olivier Méhu
Technical & hardware support : Manuel Goepfert

Contact : metmap@orbifly.com




SOURCES & CREDITS :

   NOAA